Time;durP1;ratioP1;P1;durP2;ratioP2;P2;SDS_P1;SDS_P2;PMS_P1;PMS_P2;Temp;Humidity;BMP_temperature;BMP_pressure;BME280_temperature;BME280_humidity;BME280_pressure;Samples;Min_cycle;Max_cycle;Signal;HPM_P1;HPM_P2
2021/07/15 00:01:12;;;;;;;2.37;2.27;;;22.20;1.00;;;;;;5125480;27;20802;-58
2021/07/15 00:03:38;;;;;;;2.70;2.50;;;22.30;1.00;;;;;;5121127;27;20269;-58
2021/07/15 00:06:04;;;;;;;2.67;2.47;;;23.30;1.00;;;;;;5130720;27;20893;-58
2021/07/15 00:08:30;;;;;;;2.40;2.20;;;22.20;1.00;;;;;;5129379;27;20187;-56
2021/07/15 00:11:05;;;;;;;2.80;2.60;;;22.40;1.00;;;;;;5126622;27;20458;-58
2021/07/15 00:13:31;;;;;;;2.87;2.67;;;22.40;1.00;;;;;;5130250;27;20188;-59
2021/07/15 00:16:01;;;;;;;2.90;2.70;;;22.30;1.00;;;;;;5130300;27;20435;-59
2021/07/15 00:18:30;;;;;;;2.77;2.57;;;22.30;1.00;;;;;;5121602;27;20498;-58
2021/07/15 00:20:58;;;;;;;2.73;2.53;;;22.40;1.00;;;;;;5129157;27;20447;-58
2021/07/15 00:23:24;;;;;;;2.40;2.20;;;22.40;1.00;;;;;;5128732;27;20435;-57
2021/07/15 00:25:51;;;;;;;2.70;2.33;;;22.40;1.00;;;;;;5127246;27;20505;-58
2021/07/15 00:28:17;;;;;;;3.20;2.90;;;22.40;1.00;;;;;;5126519;27;20831;-58
2021/07/15 00:30:43;;;;;;;2.70;2.50;;;22.20;1.00;;;;;;5129445;27;20469;-58
2021/07/15 00:33:09;;;;;;;2.70;2.50;;;22.20;1.00;;;;;;5126786;27;20439;-58
2021/07/15 00:35:36;;;;;;;2.70;2.50;;;22.20;1.00;;;;;;5128657;27;20441;-58
2021/07/15 00:38:03;;;;;;;3.30;3.00;;;22.20;1.00;;;;;;5128095;27;20233;-57
2021/07/15 00:40:29;;;;;;;3.30;2.60;;;22.20;1.00;;;;;;5129909;27;20446;-57
2021/07/15 00:42:55;;;;;;;2.83;2.53;;;22.30;1.00;;;;;;5127546;27;20446;-59
2021/07/15 00:45:20;;;;;;;4.80;2.77;;;22.30;1.00;;;;;;5107020;27;20615;-58
2021/07/15 00:47:46;;;;;;;3.23;2.40;;;22.30;1.00;;;;;;5124363;27;20439;-58
2021/07/15 00:50:17;;;;;;;2.73;2.53;;;22.30;1.00;;;;;;5127463;27;20229;-58
2021/07/15 00:52:44;;;;;;;2.70;2.50;;;22.40;1.00;;;;;;5109930;27;20575;-58
2021/07/15 00:55:17;;;;;;;2.50;2.30;;;22.30;1.00;;;;;;5125708;27;20431;-58
2021/07/15 00:57:42;;;;;;;2.70;2.43;;;22.30;1.00;;;;;;5127468;27;21005;-59
2021/07/15 01:00:10;;;;;;;2.63;2.43;;;22.20;1.00;;;;;;5129047;27;20439;-57
2021/07/15 01:02:36;;;;;;;3.00;2.80;;;22.20;1.00;;;;;;5129390;27;20202;-58
2021/07/15 01:05:20;;;;;;;2.80;2.57;;;22.10;1.00;;;;;;5125569;27;20438;-57
2021/07/15 01:07:45;;;;;;;4.10;2.47;;;22.20;1.00;;;;;;5127227;27;20955;-58
2021/07/15 01:10:14;;;;;;;3.40;3.10;;;22.30;1.00;;;;;;5128986;27;20503;-58
2021/07/15 01:13:06;;;;;;;2.90;2.70;;;22.20;1.00;;;;;;5126671;27;20266;-58
2021/07/15 01:16:03;;;;;;;2.93;2.73;;;22.20;1.00;;;;;;5109915;27;20466;-58
2021/07/15 01:18:58;;;;;;;3.00;2.70;;;22.00;1.00;;;;;;5126307;27;20454;-57
2021/07/15 01:21:38;;;;;;;3.00;2.80;;;21.90;1.00;;;;;;5037128;28;20505;-58
2021/07/15 01:24:25;;;;;;;3.10;2.60;;;21.90;1.00;;;;;;5127148;27;20431;-58
2021/07/15 01:27:27;;;;;;;2.93;2.73;;;21.90;1.00;;;;;;5130215;27;20434;-59
2021/07/15 01:30:01;;;;;;;3.10;2.53;;;21.80;1.00;;;;;;5128202;27;20463;-59
2021/07/15 01:32:30;;;;;;;2.87;2.67;;;21.80;1.00;;;;;;5112719;27;20783;-57
2021/07/15 01:35:00;;;;;;;3.23;2.97;;;21.70;1.00;;;;;;5129031;27;20522;-58
2021/07/15 01:37:27;;;;;;;3.07;2.77;;;21.60;1.00;;;;;;5127794;27;20492;-58
2021/07/15 01:39:56;;;;;;;3.20;3.00;;;21.50;1.00;;;;;;5112210;27;20495;-58
2021/07/15 01:42:22;;;;;;;3.70;2.80;;;21.50;1.00;;;;;;5127818;27;20458;-58
2021/07/15 01:44:48;;;;;;;4.10;3.10;;;21.40;1.00;;;;;;5130776;27;20463;-59
2021/07/15 01:47:17;;;;;;;3.33;3.03;;;21.30;1.00;;;;;;5124573;27;20452;-58
2021/07/15 01:49:42;;;;;;;3.33;2.90;;;21.30;1.00;;;;;;5126440;27;20452;-58
2021/07/15 01:52:09;;;;;;;2.67;2.30;;;21.30;1.00;;;;;;5129838;27;20427;-58
2021/07/15 01:54:35;;;;;;;3.33;3.07;;;21.20;1.00;;;;;;5141919;27;20260;-56
2021/07/15 01:57:03;;;;;;;3.13;2.73;;;21.30;1.00;;;;;;5128416;27;20510;-58
2021/07/15 01:59:32;;;;;;;2.60;2.30;;;21.30;1.00;;;;;;5109947;27;20920;-58
2021/07/15 02:01:59;;;;;;;5.47;3.00;;;21.20;1.00;;;;;;5131934;27;20836;-58
2021/07/15 02:04:27;;;;;;;3.00;2.80;;;21.10;1.00;;;;;;5131844;27;20924;-58
2021/07/15 02:06:54;;;;;;;3.00;2.80;;;21.00;1.00;;;;;;5133506;27;20450;-57
2021/07/15 02:09:23;;;;;;;2.80;2.60;;;20.90;1.00;;;;;;5113698;27;20534;-58
2021/07/15 02:11:50;;;;;;;3.50;3.20;;;20.90;1.00;;;;;;5129785;27;20477;-58
2021/07/15 02:14:20;;;;;;;3.17;2.90;;;20.80;1.00;;;;;;5132505;27;20458;-58
2021/07/15 02:16:50;;;;;;;3.00;2.80;;;20.80;1.00;;;;;;5129559;27;20445;-57
2021/07/15 02:19:17;;;;;;;2.93;2.73;;;21.30;1.00;;;;;;5111826;27;20463;-58
2021/07/15 02:21:45;;;;;;;2.63;2.43;;;20.90;1.00;;;;;;5132619;27;20451;-59
2021/07/15 02:24:13;;;;;;;4.70;3.00;;;20.90;1.00;;;;;;5112579;27;20455;-58
2021/07/15 02:26:41;;;;;;;2.97;2.70;;;21.00;1.00;;;;;;5134210;27;20442;-58
2021/07/15 02:29:07;;;;;;;3.23;2.93;;;21.10;1.00;;;;;;5132864;27;20924;-57
2021/07/15 02:31:51;;;;;;;2.70;2.50;;;21.20;1.00;;;;;;5133229;27;20459;-56
2021/07/15 02:34:29;;;;;;;2.60;2.40;;;21.30;1.00;;;;;;5131983;27;20441;-58
2021/07/15 02:36:58;;;;;;;2.50;2.30;;;21.20;1.00;;;;;;5128839;27;20942;-57
2021/07/15 02:39:24;;;;;;;2.83;2.63;;;21.20;1.00;;;;;;5133351;27;20438;-58
2021/07/15 02:41:49;;;;;;;2.70;2.30;;;21.30;1.00;;;;;;5112631;27;20469;-58
2021/07/15 02:44:15;;;;;;;2.70;2.50;;;21.30;1.00;;;;;;5131326;27;20204;-58
2021/07/15 02:46:41;;;;;;;2.67;2.47;;;21.40;1.00;;;;;;5129797;27;20189;-58
2021/07/15 02:49:06;;;;;;;2.97;2.77;;;21.40;1.00;;;;;;5132463;27;20642;-59
2021/07/15 02:51:32;;;;;;;3.10;2.70;;;21.30;1.00;;;;;;5126914;27;20234;-58
2021/07/15 02:53:59;;;;;;;3.30;3.00;;;21.20;1.00;;;;;;5113065;27;20196;-57
2021/07/15 02:56:43;;;;;;;2.53;2.33;;;21.10;1.00;;;;;;5130292;27;20189;-57
2021/07/15 02:59:19;;;;;;;4.10;2.60;;;21.10;1.00;;;;;;5111127;27;20520;-57
2021/07/15 03:02:11;;;;;;;3.00;2.80;;;21.10;1.00;;;;;;5131227;27;20426;-58
2021/07/15 03:04:42;;;;;;;3.80;2.63;;;21.10;1.00;;;;;;5125984;27;20944;-57
2021/07/15 03:07:09;;;;;;;2.90;2.53;;;21.20;1.00;;;;;;5131441;27;20829;-58
2021/07/15 03:09:38;;;;;;;2.90;2.70;;;21.20;1.00;;;;;;5109079;27;20406;-58
2021/07/15 03:12:17;;;;;;;3.27;2.80;;;21.10;1.00;;;;;;5128018;27;20530;-57
2021/07/15 03:14:46;;;;;;;3.90;3.30;;;21.00;1.00;;;;;;5130332;27;20426;-57
2021/07/15 03:17:20;;;;;;;3.23;2.90;;;21.00;1.00;;;;;;5124726;27;20844;-57
2021/07/15 03:19:48;;;;;;;3.27;3.07;;;21.10;1.00;;;;;;5129789;27;20865;-59
2021/07/15 03:22:15;;;;;;;3.50;3.20;;;21.00;1.00;;;;;;5127208;27;20453;-58
2021/07/15 03:24:51;;;;;;;2.97;2.77;;;21.00;1.00;;;;;;5127050;27;20772;-57
2021/07/15 03:27:19;;;;;;;5.43;3.10;;;21.10;1.00;;;;;;5111299;27;20495;-57
2021/07/15 03:29:46;;;;;;;4.87;4.40;;;21.00;1.00;;;;;;5125967;27;20472;-57
2021/07/15 03:32:14;;;;;;;3.40;2.50;;;20.80;1.00;;;;;;5125976;27;20513;-58
2021/07/15 03:34:40;;;;;;;3.10;2.90;;;20.80;1.00;;;;;;5128858;27;20443;-57
2021/07/15 03:37:06;;;;;;;2.93;2.73;;;20.80;1.00;;;;;;5129982;27;20519;-58
2021/07/15 03:39:32;;;;;;;4.27;2.80;;;21.00;1.00;;;;;;5130641;27;20529;-57
2021/07/15 03:41:58;;;;;;;2.80;2.60;;;21.00;1.00;;;;;;5126400;27;20442;-57
2021/07/15 03:44:25;;;;;;;2.97;2.63;;;21.10;1.00;;;;;;5130513;27;20796;-57
2021/07/15 03:46:52;;;;;;;3.00;2.70;;;21.20;1.00;;;;;;5123266;27;20287;-58
2021/07/15 03:49:19;;;;;;;3.10;2.80;;;21.10;1.00;;;;;;5128564;27;20883;-58
2021/07/15 03:51:46;;;;;;;2.70;2.50;;;21.20;1.00;;;;;;5128059;27;20470;-58
2021/07/15 03:54:13;;;;;;;3.50;3.20;;;21.30;1.00;;;;;;5130027;27;20495;-57
2021/07/15 03:56:42;;;;;;;5.43;4.63;;;21.40;1.00;;;;;;5127971;27;20864;-57
2021/07/15 03:59:08;;;;;;;5.47;3.10;;;21.40;1.00;;;;;;5131014;27;20468;-58
2021/07/15 04:01:35;;;;;;;2.90;2.70;;;21.50;1.00;;;;;;5129799;27;20470;-57
2021/07/15 04:04:02;;;;;;;3.20;2.77;;;21.60;1.00;;;;;;5102793;27;20451;-57
2021/07/15 04:06:28;;;;;;;3.80;3.50;;;21.60;1.00;;;;;;5125933;27;20454;-58
2021/07/15 04:08:57;;;;;;;2.70;2.50;;;21.70;1.00;;;;;;5131319;27;20439;-57
2021/07/15 04:11:24;;;;;;;5.20;2.90;;;21.70;1.00;;;;;;5112617;27;20454;-57
2021/07/15 04:13:51;;;;;;;3.20;3.00;;;21.60;1.00;;;;;;5122872;27;20446;-58
2021/07/15 04:16:29;;;;;;;3.47;2.50;;;21.70;1.00;;;;;;5130426;27;20588;-57
2021/07/15 04:18:57;;;;;;;3.20;2.90;;;21.90;1.00;;;;;;5125070;27;20449;-58
2021/07/15 04:21:25;;;;;;;3.87;3.57;;;21.80;1.00;;;;;;5130644;27;20443;-58
2021/07/15 04:23:55;;;;;;;3.50;3.20;;;21.70;1.00;;;;;;5129607;27;20438;-57
2021/07/15 04:26:23;;;;;;;3.40;3.13;;;21.70;1.00;;;;;;5129157;27;20435;-57
2021/07/15 04:28:49;;;;;;;6.17;3.13;;;21.70;1.00;;;;;;5125429;27;20834;-58
2021/07/15 04:31:56;;;;;;;3.20;2.87;;;21.70;1.00;;;;;;5125590;27;20467;-57
2021/07/15 04:34:26;;;;;;;3.20;2.90;;;21.70;1.00;;;;;;5110453;27;20441;-57
2021/07/15 04:36:53;;;;;;;3.30;3.00;;;21.70;1.00;;;;;;5130474;27;20434;-58
2021/07/15 04:39:18;;;;;;;3.60;3.30;;;21.90;1.00;;;;;;5130204;27;20470;-56
2021/07/15 04:41:44;;;;;;;3.83;2.83;;;21.80;1.00;;;;;;5131052;27;21089;-57
2021/07/15 04:44:13;;;;;;;3.80;2.77;;;21.90;1.00;;;;;;5129538;27;20526;-56
2021/07/15 04:46:39;;;;;;;3.53;3.00;;;21.80;1.00;;;;;;5126626;27;20645;-57
2021/07/15 04:49:07;;;;;;;3.77;3.40;;;21.90;1.00;;;;;;5127007;27;20471;-57
2021/07/15 04:51:37;;;;;;;3.37;3.07;;;21.90;1.00;;;;;;5129579;27;20250;-57
2021/07/15 04:54:04;;;;;;;3.37;2.67;;;21.90;1.00;;;;;;5128207;27;20999;-57
2021/07/15 04:56:32;;;;;;;3.20;2.90;;;22.00;1.00;;;;;;5123519;27;20455;-57
2021/07/15 04:58:59;;;;;;;4.40;2.90;;;22.10;1.00;;;;;;5128573;27;20761;-57
2021/07/15 05:01:25;;;;;;;3.30;2.87;;;22.10;1.00;;;;;;5124383;27;20447;-56
2021/07/15 05:03:51;;;;;;;3.30;2.87;;;22.10;1.00;;;;;;5129211;27;20457;-58
2021/07/15 05:06:18;;;;;;;3.80;2.90;;;22.10;1.00;;;;;;5126027;27;20197;-57
2021/07/15 05:08:43;;;;;;;4.13;3.00;;;22.30;1.00;;;;;;5131334;27;20590;-57
2021/07/15 05:11:10;;;;;;;11.93;10.73;;;22.30;1.00;;;;;;5124709;27;20462;-56
2021/07/15 05:13:36;;;;;;;6.23;4.13;;;22.50;1.00;;;;;;5109244;27;20300;-58
2021/07/15 05:16:02;;;;;;;3.80;3.40;;;22.50;1.00;;;;;;5127726;27;20435;-57
2021/07/15 05:18:28;;;;;;;5.03;3.10;;;22.60;1.00;;;;;;5129805;27;21003;-58
2021/07/15 05:20:53;;;;;;;3.27;2.97;;;22.80;1.00;;;;;;5129495;27;20186;-57
2021/07/15 05:23:20;;;;;;;7.27;3.17;;;22.90;1.00;;;;;;5130280;27;20213;-56
2021/07/15 05:25:46;;;;;;;3.80;3.07;;;23.10;1.00;;;;;;5129285;27;20226;-58
2021/07/15 05:28:12;;;;;;;3.37;3.07;;;23.20;1.00;;;;;;5128001;27;20871;-57
2021/07/15 05:30:38;;;;;;;3.00;2.80;;;23.30;1.00;;;;;;5130059;27;20601;-58
2021/07/15 05:33:03;;;;;;;3.80;2.77;;;23.30;1.00;;;;;;5126458;27;20222;-58
2021/07/15 05:35:29;;;;;;;3.17;2.87;;;23.30;1.00;;;;;;5130731;27;20642;-59
2021/07/15 05:37:55;;;;;;;3.23;2.70;;;23.40;1.00;;;;;;5130949;27;20232;-58
2021/07/15 05:40:21;;;;;;;4.43;2.80;;;23.60;1.00;;;;;;5132893;27;20307;-57
2021/07/15 05:42:46;;;;;;;5.97;3.43;;;23.60;1.00;;;;;;5131881;27;20221;-58
2021/07/15 05:45:12;;;;;;;3.17;2.73;;;23.60;1.00;;;;;;5132879;27;20185;-56
2021/07/15 05:47:37;;;;;;;2.93;2.63;;;23.60;1.00;;;;;;5132811;27;20247;-58
2021/07/15 05:50:04;;;;;;;2.53;2.33;;;23.70;1.00;;;;;;5127858;27;20659;-58
2021/07/15 05:52:30;;;;;;;3.20;2.90;;;23.80;1.00;;;;;;5131203;27;20184;-57
2021/07/15 05:54:57;;;;;;;3.50;2.80;;;23.80;1.00;;;;;;5114865;27;20439;-57
2021/07/15 05:57:23;;;;;;;2.77;2.57;;;23.30;1.00;;;;;;5111414;27;20188;-57
2021/07/15 05:59:49;;;;;;;3.37;2.80;;;23.20;1.00;;;;;;5128592;27;20450;-57
2021/07/15 06:02:15;;;;;;;2.70;2.50;;;23.30;1.00;;;;;;5131414;27;20417;-59
2021/07/15 06:04:41;;;;;;;3.17;2.63;;;23.40;1.00;;;;;;5131988;27;20209;-59
2021/07/15 06:07:07;;;;;;;7.40;2.60;;;23.40;1.00;;;;;;5133540;27;20481;-58
2021/07/15 06:09:32;;;;;;;2.47;2.27;;;23.50;1.00;;;;;;5133136;27;20700;-58
2021/07/15 06:11:58;;;;;;;2.50;2.30;;;25.50;1.00;;;;;;5133347;27;20213;-57
2021/07/15 06:14:23;;;;;;;2.90;2.33;;;23.80;1.00;;;;;;5130267;27;20189;-57
2021/07/15 06:16:49;;;;;;;2.70;2.50;;;24.00;1.00;;;;;;5130554;27;20190;-57
2021/07/15 06:19:14;;;;;;;5.13;3.10;;;24.00;1.00;;;;;;5132603;27;20189;-57
2021/07/15 06:21:40;;;;;;;2.57;2.43;;;23.90;1.00;;;;;;5132540;27;20182;-57
2021/07/15 06:24:05;;;;;;;3.40;3.10;;;24.20;1.00;;;;;;5133170;27;20173;-58
2021/07/15 06:26:31;;;;;;;4.00;2.93;;;23.90;1.00;;;;;;5134055;27;20241;-57
2021/07/15 06:28:57;;;;;;;4.37;3.13;;;23.90;1.00;;;;;;5132750;27;20262;-57
2021/07/15 06:31:25;;;;;;;4.37;2.67;;;23.90;1.00;;;;;;5130621;27;20201;-58
2021/07/15 06:33:50;;;;;;;3.20;2.90;;;24.10;1.00;;;;;;5130097;27;20650;-57
2021/07/15 06:36:16;;;;;;;3.27;2.73;;;24.10;1.00;;;;;;5131892;27;21687;-57
2021/07/15 06:38:42;;;;;;;3.07;2.77;;;24.30;1.00;;;;;;5133050;27;20192;-57
2021/07/15 06:41:09;;;;;;;4.80;2.80;;;24.40;1.00;;;;;;5129171;27;20177;-57
2021/07/15 06:43:37;;;;;;;4.57;3.37;;;24.40;1.00;;;;;;5132028;27;20177;-57
2021/07/15 06:46:03;;;;;;;6.90;3.00;;;24.30;1.00;;;;;;5132298;27;20445;-60
2021/07/15 06:48:29;;;;;;;5.63;3.20;;;24.40;1.00;;;;;;5131507;27;20434;-59
2021/07/15 06:50:55;;;;;;;3.80;3.13;;;24.50;1.00;;;;;;5132657;27;20257;-57
2021/07/15 06:53:21;;;;;;;3.37;3.17;;;24.40;1.00;;;;;;5130951;27;20526;-58
2021/07/15 06:55:47;;;;;;;3.00;2.80;;;24.10;1.00;;;;;;5133455;27;20431;-59
2021/07/15 06:58:12;;;;;;;2.93;2.27;;;24.30;1.00;;;;;;5133343;27;20189;-57
2021/07/15 07:00:38;;;;;;;2.60;2.40;;;24.30;1.00;;;;;;5133650;27;20177;-56
2021/07/15 07:03:03;;;;;;;3.03;2.73;;;24.30;1.00;;;;;;5114983;27;20558;-57
2021/07/15 07:05:29;;;;;;;3.27;2.53;;;24.20;1.00;;;;;;5130542;27;20189;-56
2021/07/15 07:07:55;;;;;;;3.50;2.80;;;24.00;1.00;;;;;;5133411;27;20188;-57
2021/07/15 07:10:20;;;;;;;3.57;2.80;;;24.20;1.00;;;;;;5131355;27;20220;-58
2021/07/15 07:12:47;;;;;;;2.83;2.60;;;24.30;1.00;;;;;;5130519;27;20176;-57
2021/07/15 07:15:16;;;;;;;3.50;2.53;;;24.20;1.00;;;;;;5128058;27;20390;-58
2021/07/15 07:17:42;;;;;;;2.80;2.33;;;24.30;1.00;;;;;;5112552;27;20938;-57
2021/07/15 07:20:09;;;;;;;4.17;2.70;;;24.50;1.00;;;;;;5130730;27;20499;-57
2021/07/15 07:22:35;;;;;;;2.53;2.37;;;24.90;1.00;;;;;;5132382;27;20446;-58
2021/07/15 07:25:02;;;;;;;2.30;2.10;;;25.00;1.00;;;;;;5131188;27;20506;-59
2021/07/15 07:27:28;;;;;;;2.60;2.00;;;25.20;1.00;;;;;;5131461;27;20902;-58
2021/07/15 07:29:54;;;;;;;2.50;2.27;;;25.20;1.00;;;;;;5128782;27;20484;-58
2021/07/15 07:32:20;;;;;;;3.03;2.37;;;25.40;1.00;;;;;;5128011;27;20185;-58
2021/07/15 07:34:45;;;;;;;2.90;2.43;;;25.70;1.00;;;;;;5130808;27;20434;-59
2021/07/15 07:37:11;;;;;;;3.50;3.00;;;25.80;1.00;;;;;;5130395;27;20189;-60
2021/07/15 07:39:36;;;;;;;2.80;2.60;;;26.00;1.00;;;;;;5131115;27;20181;-58
2021/07/15 07:42:02;;;;;;;2.93;2.73;;;25.90;1.00;;;;;;5129863;27;20519;-58
2021/07/15 07:44:27;;;;;;;3.47;3.10;;;26.40;1.00;;;;;;5132484;27;20523;-58
2021/07/15 07:46:53;;;;;;;3.00;2.70;;;25.70;1.00;;;;;;5129929;27;20189;-58
2021/07/15 07:49:19;;;;;;;3.33;2.30;;;25.60;1.00;;;;;;5132032;27;20177;-58
2021/07/15 07:51:44;;;;;;;4.73;3.53;;;25.70;1.00;;;;;;5131268;27;20265;-58
2021/07/15 07:54:10;;;;;;;2.40;2.20;;;25.90;1.00;;;;;;5108620;27;20182;-58
2021/07/15 07:56:35;;;;;;;3.90;2.63;;;25.90;1.00;;;;;;5124447;27;20546;-58
2021/07/15 07:59:03;;;;;;;2.90;2.60;;;26.30;1.00;;;;;;5129078;27;20200;-59
2021/07/15 08:01:29;;;;;;;3.33;2.80;;;26.50;1.00;;;;;;5130926;27;20916;-59
2021/07/15 08:03:55;;;;;;;2.60;2.37;;;26.50;1.00;;;;;;5128972;27;20638;-58
2021/07/15 08:06:21;;;;;;;3.30;2.80;;;26.40;1.00;;;;;;5131667;27;20638;-59
2021/07/15 08:08:47;;;;;;;4.23;2.40;;;26.40;1.00;;;;;;5129853;27;20417;-59
2021/07/15 08:11:13;;;;;;;2.30;2.20;;;26.50;1.00;;;;;;5130341;27;20462;-58
2021/07/15 08:13:39;;;;;;;3.50;3.20;;;26.60;1.00;;;;;;5130669;27;20588;-59
2021/07/15 08:16:05;;;;;;;3.20;3.00;;;26.60;1.00;;;;;;5131374;27;20466;-59
2021/07/15 08:18:30;;;;;;;3.80;2.30;;;26.50;1.00;;;;;;5129392;27;20637;-60
2021/07/15 08:20:56;;;;;;;3.93;2.37;;;27.00;1.00;;;;;;5126731;27;20494;-59
2021/07/15 08:23:22;;;;;;;3.23;2.70;;;27.10;1.00;;;;;;5132159;27;20209;-59
2021/07/15 08:25:47;;;;;;;3.33;2.90;;;27.60;1.00;;;;;;5131591;27;20196;-59
2021/07/15 08:28:13;;;;;;;2.83;2.60;;;27.70;1.00;;;;;;5131010;27;20278;-59
2021/07/15 08:30:39;;;;;;;3.73;2.70;;;27.70;1.00;;;;;;5129848;27;20219;-58
2021/07/15 08:33:05;;;;;;;3.00;2.80;;;27.70;1.00;;;;;;5127775;27;20185;-59
2021/07/15 08:35:32;;;;;;;3.10;2.30;;;27.50;1.00;;;;;;5128287;27;20185;-59
2021/07/15 08:37:58;;;;;;;3.23;2.93;;;27.70;1.00;;;;;;5125922;27;20788;-58
2021/07/15 08:40:25;;;;;;;2.60;2.40;;;27.90;1.00;;;;;;5128703;27;20433;-60
2021/07/15 08:42:51;;;;;;;3.10;2.80;;;28.00;1.00;;;;;;5131331;27;20430;-59
2021/07/15 08:45:16;;;;;;;2.70;2.50;;;27.80;1.00;;;;;;5130336;27;20445;-58
2021/07/15 08:47:44;;;;;;;2.77;2.57;;;27.90;1.00;;;;;;5131677;27;20870;-59
2021/07/15 08:50:13;;;;;;;3.93;2.77;;;27.70;1.00;;;;;;5131280;27;20220;-59
2021/07/15 08:52:38;;;;;;;6.00;2.63;;;27.90;1.00;;;;;;5131605;27;20413;-59
2021/07/15 08:57:35;;;;;;;3.30;2.93;;;27.90;1.00;;;;;;5131713;27;20454;-60
2021/07/15 09:00:02;;;;;;;3.13;2.93;;;27.90;1.00;;;;;;5131482;27;20462;-58
2021/07/15 09:02:28;;;;;;;2.80;2.60;;;28.10;1.00;;;;;;5131605;27;20454;-59
2021/07/15 09:04:53;;;;;;;3.17;2.97;;;28.20;1.00;;;;;;5128933;27;20430;-58
2021/07/15 09:07:19;;;;;;;2.90;2.70;;;28.10;1.00;;;;;;5131584;27;20715;-59
2021/07/15 09:09:46;;;;;;;4.00;3.30;;;28.00;1.00;;;;;;5134039;27;20223;-59
2021/07/15 09:12:14;;;;;;;3.17;2.97;;;27.90;1.00;;;;;;5135493;27;20481;-59
2021/07/15 09:14:52;;;;;;;3.20;3.00;;;27.90;1.00;;;;;;5135527;27;20423;-59
2021/07/15 09:17:30;;;;;;;4.20;3.50;;;27.40;1.00;;;;;;5135526;27;20799;-59
2021/07/15 09:19:56;;;;;;;2.70;2.50;;;27.50;1.00;;;;;;5135496;27;20430;-58
2021/07/15 09:22:22;;;;;;;4.03;3.67;;;27.70;1.00;;;;;;5133894;27;20783;-60
2021/07/15 09:24:48;;;;;;;3.03;2.80;;;27.90;1.00;;;;;;5130746;27;20445;-60
2021/07/15 09:27:24;;;;;;;3.73;3.43;;;27.70;1.00;;;;;;5141089;27;20213;-60
2021/07/15 09:30:06;;;;;;;3.67;3.20;;;27.90;1.00;;;;;;5125851;27;20195;-59
2021/07/15 09:32:31;;;;;;;3.50;3.27;;;28.20;1.00;;;;;;5133146;27;20440;-59
2021/07/15 09:35:05;;;;;;;5.20;3.70;;;28.30;1.00;;;;;;5130749;27;20932;-59
2021/07/15 09:37:34;;;;;;;4.10;3.80;;;28.10;1.00;;;;;;5114841;27;20270;-60
2021/07/15 09:40:00;;;;;;;3.80;3.50;;;27.90;1.00;;;;;;5133128;27;20501;-60
2021/07/15 09:42:26;;;;;;;3.90;3.60;;;27.70;1.00;;;;;;5115869;27;20936;-59
2021/07/15 09:44:53;;;;;;;3.97;3.67;;;27.50;1.00;;;;;;5133003;27;20505;-60
2021/07/15 09:47:40;;;;;;;3.70;3.40;;;27.50;1.00;;;;;;5129892;27;20258;-59
2021/07/15 09:50:17;;;;;;;4.70;4.30;;;27.10;1.00;;;;;;5110830;28;20495;-59
2021/07/15 09:52:46;;;;;;;4.47;4.10;;;27.10;1.00;;;;;;5113073;28;20546;-59
2021/07/15 09:55:22;;;;;;;4.30;3.90;;;27.40;1.00;;;;;;5112870;28;20443;-59
2021/07/15 09:58:03;;;;;;;4.47;4.10;;;28.10;1.00;;;;;;5111070;28;20486;-60
2021/07/15 10:00:37;;;;;;;4.93;4.63;;;28.70;1.00;;;;;;5108489;28;20418;-59
2021/07/15 10:03:05;;;;;;;4.70;4.40;;;28.80;1.00;;;;;;5110940;28;20419;-59
2021/07/15 10:05:30;;;;;;;4.80;4.40;;;29.00;1.00;;;;;;5111913;28;20444;-59
2021/07/15 10:08:03;;;;;;;4.93;4.53;;;28.90;1.00;;;;;;5111133;28;20459;-60
2021/07/15 10:10:29;;;;;;;4.90;4.50;;;29.10;1.00;;;;;;5112818;28;20566;-59
2021/07/15 10:12:55;;;;;;;5.47;4.40;;;29.20;1.00;;;;;;5110738;28;20443;-59
2021/07/15 10:15:21;;;;;;;4.20;3.90;;;29.20;1.00;;;;;;5113172;28;20535;-58
2021/07/15 10:17:47;;;;;;;5.93;4.90;;;29.40;1.00;;;;;;5109431;27;20190;-60
2021/07/15 10:20:15;;;;;;;5.13;4.73;;;29.70;1.00;;;;;;5108008;28;20205;-59
2021/07/15 10:22:41;;;;;;;6.27;4.80;;;29.70;1.00;;;;;;5110147;28;20447;-58
2021/07/15 10:25:11;;;;;;;4.20;3.80;;;30.10;1.00;;;;;;5108775;28;20435;-59
2021/07/15 10:27:40;;;;;;;4.47;4.17;;;29.90;1.00;;;;;;5113066;28;20473;-58
2021/07/15 10:30:08;;;;;;;5.10;4.70;;;29.30;1.00;;;;;;5109629;28;20809;-58
2021/07/15 10:32:36;;;;;;;4.63;4.30;;;28.60;1.00;;;;;;5106264;28;20412;-58
2021/07/15 10:35:04;;;;;;;5.37;4.80;;;28.10;1.00;;;;;;5110062;27;20429;-62
2021/07/15 10:37:34;;;;;;;5.20;4.33;;;27.80;1.00;;;;;;5112115;28;20427;-58
2021/07/15 10:40:01;;;;;;;5.23;4.73;;;27.50;1.00;;;;;;5112205;28;21946;-59
2021/07/15 10:42:27;;;;;;;4.87;4.47;;;27.50;1.00;;;;;;5112366;28;20446;-59
2021/07/15 10:44:54;;;;;;;4.67;4.20;;;27.50;1.00;;;;;;5112152;28;20425;-59
2021/07/15 10:47:21;;;;;;;5.23;4.73;;;27.50;1.00;;;;;;5110099;28;20459;-58
2021/07/15 10:49:47;;;;;;;5.07;4.67;;;27.50;1.00;;;;;;5107184;27;20452;-59
2021/07/15 10:52:18;;;;;;;5.03;4.63;;;27.60;1.00;;;;;;5131345;27;20494;-59
2021/07/15 10:54:44;;;;;;;5.40;4.93;;;28.10;1.00;;;;;;5133106;27;20462;-58
2021/07/15 10:57:11;;;;;;;5.30;4.80;;;28.40;1.00;;;;;;5129854;27;20439;-57
2021/07/15 10:59:36;;;;;;;4.97;4.57;;;28.60;1.00;;;;;;5108268;27;20539;-58
2021/07/15 11:02:16;;;;;;;5.03;4.63;;;28.40;1.00;;;;;;5128515;27;20521;-58
2021/07/15 11:04:41;;;;;;;4.97;4.67;;;28.50;1.00;;;;;;5131950;27;20191;-59
2021/07/15 11:07:24;;;;;;;4.43;4.13;;;28.80;1.00;;;;;;5127150;27;20435;-58
2021/07/15 11:09:52;;;;;;;4.70;4.40;;;29.20;1.00;;;;;;5131089;27;20634;-59
2021/07/15 11:12:38;;;;;;;4.50;4.10;;;29.60;1.00;;;;;;5128776;27;20529;-58
2021/07/15 11:15:13;;;;;;;4.90;4.60;;;29.90;1.00;;;;;;5127521;27;20434;-60
2021/07/15 11:17:49;;;;;;;7.13;5.00;;;30.10;1.00;;;;;;5131171;27;20412;-60
2021/07/15 11:20:27;;;;;;;5.20;4.80;;;29.80;1.00;;;;;;5128142;27;20864;-59
2021/07/15 11:22:59;;;;;;;4.13;3.83;;;29.70;1.00;;;;;;5127115;27;20412;-58
2021/07/15 11:25:28;;;;;;;4.40;4.03;;;29.80;1.00;;;;;;5131934;27;20443;-57
2021/07/15 11:27:56;;;;;;;5.43;4.93;;;30.20;1.00;;;;;;5116620;27;20436;-60
2021/07/15 11:30:27;;;;;;;4.93;4.50;;;30.00;1.00;;;;;;5132301;27;20590;-59
2021/07/15 11:32:54;;;;;;;4.50;4.20;;;30.40;1.00;;;;;;5127879;27;20438;-58
2021/07/15 11:35:28;;;;;;;4.77;4.37;;;30.40;1.00;;;;;;5129164;27;20413;-59
2021/07/15 11:38:13;;;;;;;4.20;3.90;;;29.70;1.00;;;;;;5131299;27;20450;-58
2021/07/15 11:40:42;;;;;;;4.13;3.83;;;29.00;1.00;;;;;;5129628;27;20791;-59
2021/07/15 11:43:18;;;;;;;4.33;3.97;;;28.80;1.00;;;;;;5131118;27;20431;-58
2021/07/15 11:46:25;;;;;;;4.90;4.60;;;28.40;1.00;;;;;;5129053;27;20438;-58
2021/07/15 11:48:54;;;;;;;4.50;4.10;;;28.00;1.00;;;;;;5117647;27;20800;-58
2021/07/15 11:51:30;;;;;;;4.60;4.20;;;29.40;1.00;;;;;;5128145;27;20528;-60
2021/07/15 11:54:14;;;;;;;4.67;4.20;;;28.70;1.00;;;;;;5131406;27;20816;-58
2021/07/15 11:56:41;;;;;;;5.90;4.50;;;29.00;1.00;;;;;;5130897;27;20471;-58
2021/07/15 11:59:07;;;;;;;5.30;4.10;;;28.90;1.00;;;;;;5131223;27;20918;-58
2021/07/15 12:01:35;;;;;;;4.60;4.20;;;28.40;1.00;;;;;;5131438;27;20435;-59
2021/07/15 12:04:09;;;;;;;4.83;4.43;;;28.20;1.00;;;;;;5127828;27;20809;-61
2021/07/15 12:06:43;;;;;;;4.30;4.00;;;28.00;1.00;;;;;;5127374;27;20788;-58
2021/07/15 12:09:13;;;;;;;4.50;4.20;;;28.40;1.00;;;;;;5130127;27;20439;-59
2021/07/15 12:11:42;;;;;;;3.90;3.60;;;28.90;1.00;;;;;;5131308;27;21004;-59
2021/07/15 12:14:08;;;;;;;4.73;4.40;;;29.30;1.00;;;;;;5132044;27;20431;-58
2021/07/15 12:16:36;;;;;;;6.30;4.10;;;29.50;1.00;;;;;;5132170;27;20950;-58
2021/07/15 12:19:08;;;;;;;4.13;3.80;;;29.70;1.00;;;;;;5128725;27;20435;-58
2021/07/15 12:21:35;;;;;;;4.87;3.73;;;29.90;1.00;;;;;;5128432;27;20764;-59
2021/07/15 12:24:10;;;;;;;4.30;3.90;;;30.00;1.00;;;;;;5128444;27;20442;-59
2021/07/15 12:26:37;;;;;;;3.63;3.33;;;30.20;1.00;;;;;;5112551;27;20450;-59
2021/07/15 12:29:04;;;;;;;3.80;3.60;;;30.40;1.00;;;;;;5128272;27;20410;-60
2021/07/15 12:31:30;;;;;;;4.37;4.07;;;30.50;1.00;;;;;;5143801;27;20957;-59
2021/07/15 12:34:02;;;;;;;4.40;4.10;;;30.60;1.00;;;;;;5110245;27;20450;-58
2021/07/15 12:36:28;;;;;;;4.03;3.73;;;31.20;1.00;;;;;;5129760;27;20434;-59
2021/07/15 12:38:59;;;;;;;4.13;3.83;;;31.50;1.00;;;;;;5135897;27;20914;-60
2021/07/15 12:41:27;;;;;;;3.80;3.60;;;31.70;1.00;;;;;;5146437;27;20177;-60
2021/07/15 12:43:58;;;;;;;4.03;3.73;;;31.80;1.00;;;;;;5130567;27;20439;-59
2021/07/15 12:46:29;;;;;;;4.23;3.83;;;31.80;1.00;;;;;;5130965;27;20433;-60
2021/07/15 12:48:57;;;;;;;4.20;3.90;;;31.90;1.00;;;;;;5131022;27;20545;-59
2021/07/15 12:51:28;;;;;;;4.60;4.30;;;32.00;1.00;;;;;;5130431;27;20473;-58
2021/07/15 12:53:54;;;;;;;4.83;3.90;;;31.70;1.00;;;;;;5131978;27;20438;-59
2021/07/15 12:56:26;;;;;;;4.90;4.50;;;31.40;1.00;;;;;;5131342;27;20919;-58
2021/07/15 12:58:58;;;;;;;5.43;4.93;;;31.10;1.00;;;;;;5130704;27;20442;-59
2021/07/15 13:01:25;;;;;;;4.93;4.63;;;30.10;1.00;;;;;;5131468;27;20450;-59
2021/07/15 13:04:20;;;;;;;5.13;4.73;;;29.70;1.00;;;;;;5131957;27;20574;-59
2021/07/15 13:06:47;;;;;;;5.07;4.67;;;29.30;1.00;;;;;;5131216;27;20948;-59
2021/07/15 13:09:41;;;;;;;8.80;4.87;;;29.30;1.00;;;;;;5131284;27;21040;-58